createdAt,value
2022-11-30T00:01:09.651Z,-0.18
2022-11-30T00:03:36.249Z,-0.01
2022-11-30T00:06:06.195Z,-0.19
2022-11-30T00:08:32.826Z,-0.15
2022-11-30T00:10:59.703Z,-0.13
2022-11-30T00:13:26.332Z,-0.12
2022-11-30T00:15:52.975Z,-0.09
2022-11-30T00:18:19.586Z,-0.10
2022-11-30T00:20:46.256Z,-0.10
2022-11-30T00:23:12.875Z,-0.12
2022-11-30T00:25:39.503Z,-0.13
2022-11-30T00:28:06.137Z,-0.14
2022-11-30T00:30:32.833Z,-0.11
2022-11-30T00:32:59.544Z,-0.06
2022-11-30T00:35:26.455Z,-0.03
2022-11-30T00:37:53.091Z,0.03
2022-11-30T00:40:19.787Z,0.09
2022-11-30T00:42:46.434Z,-0.01
2022-11-30T00:45:13.184Z,-0.04
2022-11-30T00:47:39.965Z,-0.05
2022-11-30T00:50:07.327Z,0.01
2022-11-30T00:52:33.935Z,0.02
2022-11-30T00:55:03.876Z,0.09
2022-11-30T00:57:30.960Z,0.11
2022-11-30T00:59:57.561Z,0.15
2022-11-30T01:02:24.293Z,0.15
2022-11-30T01:04:50.998Z,0.12
2022-11-30T01:07:17.636Z,0.13
2022-11-30T01:09:44.325Z,0.14
2022-11-30T01:12:10.939Z,0.09
2022-11-30T01:14:37.534Z,0.12
2022-11-30T01:17:04.402Z,0.10
2022-11-30T01:19:31.039Z,0.04
2022-11-30T01:21:57.652Z,0.03
2022-11-30T01:24:24.382Z,0.00
2022-11-30T01:26:51.002Z,0.08
2022-11-30T01:29:17.636Z,0.08
2022-11-30T01:31:44.327Z,0.10
2022-11-30T01:34:10.929Z,0.08
2022-11-30T01:36:38.977Z,0.07
2022-11-30T01:39:09.319Z,0.16
2022-11-30T01:41:39.200Z,0.09
2022-11-30T01:44:09.003Z,0.09
2022-11-30T01:46:39.364Z,0.14
2022-11-30T01:49:15.942Z,0.14
2022-11-30T01:51:48.149Z,0.13
2022-11-30T01:54:17.538Z,0.13
2022-11-30T01:56:50.854Z,0.14
2022-11-30T01:59:20.885Z,0.14
2022-11-30T02:01:47.747Z,0.16
2022-11-30T02:04:31.710Z,0.09
2022-11-30T02:06:59.890Z,0.08
2022-11-30T02:09:27.553Z,0.11
2022-11-30T02:11:54.312Z,0.15
2022-11-30T02:14:33.743Z,0.04
2022-11-30T02:17:18.621Z,0.02
2022-11-30T02:20:00.818Z,0.00
2022-11-30T02:23:01.724Z,-0.01
2022-11-30T02:25:50.328Z,-0.13
2022-11-30T02:28:42.879Z,-0.06
2022-11-30T02:31:16.748Z,-0.11
2022-11-30T02:33:45.389Z,-0.16
2022-11-30T02:36:12.398Z,-0.11
2022-11-30T02:38:40.263Z,-0.13
2022-11-30T02:41:06.939Z,-0.12
2022-11-30T02:43:34.912Z,-0.21
2022-11-30T02:46:15.585Z,-0.28
2022-11-30T02:49:12.709Z,-0.22
2022-11-30T02:51:42.731Z,-0.20
2022-11-30T02:54:09.909Z,-0.18
2022-11-30T02:56:36.519Z,-0.24
2022-11-30T02:59:03.229Z,-0.28
2022-11-30T03:01:30.063Z,-0.24
2022-11-30T03:03:56.743Z,-0.19
2022-11-30T03:06:23.484Z,-0.18
2022-11-30T03:08:50.466Z,-0.28
2022-11-30T03:11:17.116Z,-0.28
2022-11-30T03:13:43.739Z,-0.22
2022-11-30T03:16:12.563Z,-0.21
2022-11-30T03:18:40.237Z,-0.22
2022-11-30T03:21:09.058Z,-0.30
2022-11-30T03:23:35.787Z,-0.31
2022-11-30T03:26:03.364Z,-0.37
2022-11-30T03:28:30.370Z,-0.32
2022-11-30T03:30:57.733Z,-0.29
2022-11-30T03:33:25.352Z,-0.25
2022-11-30T03:36:02.562Z,-0.39
2022-11-30T03:38:29.473Z,-0.32
2022-11-30T03:41:02.847Z,-0.24
2022-11-30T03:43:29.580Z,-0.19
2022-11-30T03:45:56.239Z,-0.19
2022-11-30T03:48:23.741Z,-0.17
2022-11-30T03:50:50.632Z,-0.14
2022-11-30T03:53:18.311Z,-0.23
2022-11-30T03:55:45.118Z,-0.30
2022-11-30T03:58:12.299Z,-0.35
2022-11-30T04:00:39.413Z,-0.26
2022-11-30T04:03:06.160Z,-0.30
2022-11-30T04:05:32.867Z,-0.29
2022-11-30T04:07:59.653Z,-0.27
2022-11-30T04:10:26.517Z,-0.28
2022-11-30T04:12:53.794Z,-0.30
2022-11-30T04:15:20.470Z,-0.31
2022-11-30T04:17:47.085Z,-0.31
2022-11-30T04:20:13.788Z,-0.30
2022-11-30T04:22:40.522Z,-0.27
2022-11-30T04:25:07.865Z,-0.32
2022-11-30T04:27:34.458Z,-0.31
2022-11-30T04:30:02.373Z,-0.31
2022-11-30T04:32:28.967Z,-0.32
2022-11-30T04:34:55.613Z,-0.32
2022-11-30T04:37:22.256Z,-0.34
2022-11-30T04:39:48.924Z,-0.34
2022-11-30T04:42:15.822Z,-0.35
2022-11-30T04:44:42.436Z,-0.35
2022-11-30T04:47:09.072Z,-0.33
2022-11-30T04:49:35.781Z,-0.35
2022-11-30T04:52:02.479Z,-0.34
2022-11-30T04:54:29.135Z,-0.34
2022-11-30T04:56:55.967Z,-0.34
2022-11-30T04:59:22.623Z,-0.33
2022-11-30T05:01:49.372Z,-0.31
2022-11-30T05:04:16.158Z,-0.33
2022-11-30T05:06:42.939Z,-0.31
2022-11-30T05:09:09.840Z,-0.27
2022-11-30T05:11:36.637Z,-0.26
2022-11-30T05:14:03.324Z,-0.22
2022-11-30T05:16:30.029Z,-0.21
2022-11-30T05:18:56.758Z,-0.21
2022-11-30T05:21:23.368Z,-0.18
2022-11-30T05:23:50.014Z,-0.14
2022-11-30T05:26:16.750Z,-0.09
2022-11-30T05:28:43.362Z,-0.07
2022-11-30T05:31:10.036Z,-0.04
2022-11-30T05:33:36.761Z,0.03
2022-11-30T05:36:10.158Z,0.01
2022-11-30T05:38:37.348Z,0.02
2022-11-30T05:41:04.607Z,-0.02
2022-11-30T05:43:31.269Z,-0.03
2022-11-30T05:46:04.604Z,-0.03
2022-11-30T05:48:31.711Z,0.03
2022-11-30T05:51:08.512Z,0.04
2022-11-30T05:53:35.239Z,0.03
2022-11-30T05:56:04.337Z,0.04
2022-11-30T05:58:31.175Z,0.07
2022-11-30T06:00:57.815Z,0.09
2022-11-30T06:03:24.601Z,0.12
2022-11-30T06:05:52.535Z,0.13
2022-11-30T06:08:19.847Z,0.13
2022-11-30T06:10:46.524Z,0.24
2022-11-30T06:13:14.008Z,0.22
2022-11-30T06:15:41.101Z,0.21
2022-11-30T06:18:09.116Z,0.25
2022-11-30T06:20:35.756Z,0.27
2022-11-30T06:23:02.450Z,0.27
2022-11-30T06:25:29.272Z,0.29
2022-11-30T06:27:55.927Z,0.30
2022-11-30T06:30:23.195Z,0.32
2022-11-30T06:32:51.781Z,0.34
2022-11-30T06:35:19.369Z,0.33
2022-11-30T06:37:46.048Z,0.35
2022-11-30T06:40:13.684Z,0.35
2022-11-30T06:42:40.402Z,0.36
2022-11-30T06:45:07.728Z,0.35
2022-11-30T06:47:34.375Z,0.36
2022-11-30T06:50:00.968Z,0.39
2022-11-30T06:52:30.561Z,0.41
2022-11-30T06:54:57.191Z,0.41
2022-11-30T06:57:28.435Z,0.41
2022-11-30T06:59:55.821Z,0.45
2022-11-30T07:02:22.777Z,0.48
2022-11-30T07:04:49.814Z,0.52
2022-11-30T07:07:16.641Z,0.51
2022-11-30T07:09:43.299Z,0.54
2022-11-30T07:12:09.920Z,0.56
2022-11-30T07:14:36.628Z,0.54
2022-11-30T07:17:04.668Z,0.56
2022-11-30T07:19:34.222Z,0.63
2022-11-30T07:22:01.455Z,0.61
2022-11-30T07:24:43.347Z,0.60
2022-11-30T07:27:10.134Z,0.63
2022-11-30T07:29:36.955Z,0.64
2022-11-30T07:32:03.692Z,0.65
2022-11-30T07:34:30.357Z,0.69
2022-11-30T07:36:57.060Z,0.73
2022-11-30T07:39:24.649Z,0.71
2022-11-30T07:41:51.293Z,0.65
2022-11-30T07:44:18.019Z,0.72
2022-11-30T07:46:44.706Z,0.76
2022-11-30T07:49:11.392Z,0.73
2022-11-30T07:51:38.255Z,0.77
2022-11-30T07:54:05.542Z,0.78
2022-11-30T07:56:32.194Z,0.77
2022-11-30T07:59:00.540Z,0.76
2022-11-30T08:01:29.598Z,0.76
2022-11-30T08:03:57.262Z,0.77
2022-11-30T08:06:28.330Z,0.86
2022-11-30T08:08:57.923Z,0.80
2022-11-30T08:11:28.223Z,0.82
2022-11-30T08:13:55.041Z,0.87
2022-11-30T08:16:24.722Z,0.79
2022-11-30T08:18:51.875Z,0.79
2022-11-30T08:21:20.871Z,0.78
2022-11-30T08:23:50.193Z,0.83
2022-11-30T08:26:19.183Z,0.77
2022-11-30T08:28:47.425Z,0.69
2022-11-30T08:31:19.188Z,0.70
2022-11-30T08:33:46.786Z,0.70
2022-11-30T08:36:16.396Z,0.72
2022-11-30T08:38:44.400Z,0.74
2022-11-30T08:41:13.099Z,0.78
2022-11-30T08:43:39.905Z,0.79
2022-11-30T08:46:34.862Z,0.87
2022-11-30T08:49:13.078Z,0.85
2022-11-30T08:52:15.362Z,0.83
2022-11-30T08:54:29.143Z,0.88
2022-11-30T08:56:55.794Z,0.94
2022-11-30T08:59:22.465Z,0.97
2022-11-30T09:01:49.106Z,0.96
2022-11-30T09:04:15.743Z,1.06
2022-11-30T09:06:42.450Z,1.00
2022-11-30T09:09:09.355Z,1.03
2022-11-30T09:11:36.064Z,1.08
2022-11-30T09:14:04.850Z,0.98
2022-11-30T09:16:31.683Z,1.04
2022-11-30T09:18:58.290Z,1.07
2022-11-30T09:21:25.582Z,1.05
2022-11-30T09:23:53.342Z,1.08
2022-11-30T09:26:21.506Z,1.04
2022-11-30T09:28:48.651Z,1.14
2022-11-30T09:31:18.514Z,1.08
2022-11-30T09:33:45.231Z,1.07
2022-11-30T09:36:14.678Z,1.11
2022-11-30T09:38:42.596Z,1.02
2022-11-30T09:41:37.767Z,1.13
2022-11-30T09:44:09.618Z,1.17
2022-11-30T09:46:47.579Z,1.13
2022-11-30T09:49:30.570Z,1.07
2022-11-30T09:52:03.504Z,1.07
2022-11-30T09:54:36.365Z,1.05
2022-11-30T09:57:14.228Z,1.02
2022-11-30T09:59:51.979Z,0.99
2022-11-30T10:02:18.878Z,1.16
2022-11-30T10:04:45.984Z,1.09
2022-11-30T10:07:43.421Z,1.14
2022-11-30T10:10:40.568Z,1.15
2022-11-30T10:13:23.323Z,1.18
2022-11-30T10:16:20.578Z,1.18
2022-11-30T10:19:22.326Z,1.21
2022-11-30T10:22:09.879Z,1.18
2022-11-30T10:25:11.473Z,1.19
2022-11-30T10:27:51.392Z,1.18
2022-11-30T10:30:24.070Z,1.22
2022-11-30T10:32:55.164Z,1.16
2022-11-30T10:35:28.618Z,1.18
2022-11-30T10:38:03.562Z,1.28
2022-11-30T10:40:56.541Z,1.33
2022-11-30T10:43:49.943Z,1.27
2022-11-30T10:46:27.462Z,1.28
2022-11-30T10:49:03.205Z,1.35
2022-11-30T10:51:33.577Z,1.39
2022-11-30T10:54:05.337Z,1.34
2022-11-30T10:56:33.159Z,1.45
2022-11-30T10:59:22.691Z,1.35
2022-11-30T11:01:53.816Z,1.43
2022-11-30T11:04:29.074Z,1.31
2022-11-30T11:07:19.715Z,1.36
2022-11-30T11:09:50.684Z,1.36
2022-11-30T11:12:32.945Z,1.35
2022-11-30T11:15:10.240Z,1.29
2022-11-30T11:17:47.671Z,1.25
2022-11-30T11:23:39.081Z,1.31
2022-11-30T11:26:08.812Z,1.31
2022-11-30T11:28:38.354Z,1.37
2022-11-30T11:31:19.156Z,1.36
2022-11-30T11:33:53.825Z,1.41
2022-11-30T11:36:31.511Z,1.56
2022-11-30T11:39:00.587Z,1.57
2022-11-30T11:41:34.273Z,1.62
2022-11-30T11:44:07.867Z,1.60
2022-11-30T11:46:38.323Z,1.55
2022-11-30T11:49:18.362Z,1.56
2022-11-30T11:51:45.791Z,1.56
2022-11-30T11:54:30.611Z,1.62
2022-11-30T11:56:58.874Z,1.63
2022-11-30T12:00:00.788Z,1.63
2022-11-30T12:02:38.300Z,1.73
2022-11-30T12:05:27.707Z,1.70
2022-11-30T12:08:12.743Z,1.76
2022-11-30T12:10:52.309Z,1.65
2022-11-30T12:13:22.603Z,1.77
2022-11-30T12:16:14.704Z,1.82
2022-11-30T12:18:52.955Z,1.91
2022-11-30T12:21:28.268Z,1.90
2022-11-30T12:24:05.149Z,1.96
2022-11-30T12:26:44.682Z,1.83
2022-11-30T12:29:39.573Z,1.87
2022-11-30T12:32:35.431Z,1.91
2022-11-30T12:35:22.616Z,1.88
2022-11-30T12:38:05.741Z,1.95
2022-11-30T12:40:40.906Z,1.95
2022-11-30T12:43:07.550Z,1.90
2022-11-30T12:45:40.278Z,1.83
2022-11-30T12:48:38.676Z,1.82
2022-11-30T12:51:05.630Z,1.82
2022-11-30T12:53:44.877Z,1.82
2022-11-30T12:56:30.129Z,1.93
2022-11-30T12:59:04.895Z,1.98
2022-11-30T13:01:54.731Z,2.19
2022-11-30T13:04:27.430Z,2.21
2022-11-30T13:07:00.416Z,2.29
2022-11-30T13:09:33.711Z,2.20
2022-11-30T13:12:11.170Z,2.11
2022-11-30T13:14:38.910Z,2.07
2022-11-30T13:17:11.396Z,2.36
2022-11-30T13:19:55.529Z,2.42
2022-11-30T13:22:49.143Z,2.27
2022-11-30T13:26:06.334Z,2.39
2022-11-30T13:28:25.773Z,2.37
2022-11-30T13:31:07.751Z,2.29
2022-11-30T13:33:34.782Z,2.40
2022-11-30T13:36:20.999Z,2.48
2022-11-30T13:39:06.390Z,2.36
2022-11-30T13:41:38.099Z,2.42
2022-11-30T13:44:31.977Z,2.30
2022-11-30T13:47:30.542Z,2.26
2022-11-30T13:53:11.126Z,2.21
2022-11-30T13:55:50.868Z,2.37
2022-11-30T13:58:19.683Z,2.45
2022-11-30T14:01:03.349Z,2.40
2022-11-30T14:06:49.999Z,2.23
2022-11-30T14:10:10.905Z,2.46
2022-11-30T14:15:45.422Z,2.46
2022-11-30T14:18:31.805Z,2.35
2022-11-30T14:21:03.119Z,2.32
2022-11-30T14:23:59.662Z,2.38
2022-11-30T14:26:44.865Z,2.46
2022-11-30T14:29:44.061Z,2.35
2022-11-30T14:32:33.836Z,2.40
2022-11-30T14:35:08.019Z,2.54
2022-11-30T14:37:43.077Z,2.44
2022-11-30T14:40:18.978Z,2.30
2022-11-30T14:42:51.056Z,2.26
2022-11-30T14:45:27.862Z,2.17
2022-11-30T14:48:06.566Z,2.25
2022-11-30T14:50:34.123Z,2.20
2022-11-30T14:53:31.307Z,2.17
2022-11-30T14:56:02.186Z,2.11
2022-11-30T14:58:44.773Z,2.14
2022-11-30T15:01:20.635Z,2.10
2022-11-30T15:03:49.704Z,2.18
2022-11-30T15:06:18.757Z,2.29
2022-11-30T15:08:51.874Z,2.26
2022-11-30T15:11:19.638Z,2.11
2022-11-30T15:13:48.982Z,2.07
2022-11-30T15:16:29.215Z,2.05
2022-11-30T15:18:57.924Z,2.03
2022-11-30T15:21:29.179Z,2.02
2022-11-30T15:23:58.012Z,1.98
2022-11-30T15:26:34.111Z,2.01
2022-11-30T15:29:05.823Z,1.99
2022-11-30T15:31:36.391Z,1.97
2022-11-30T15:34:04.576Z,2.02
2022-11-30T15:36:38.137Z,2.23
2022-11-30T15:39:08.260Z,2.23
2022-11-30T15:41:36.259Z,2.01
2022-11-30T15:44:02.871Z,1.90
2022-11-30T15:46:44.468Z,1.87
2022-11-30T15:49:12.868Z,1.90
2022-11-30T15:51:43.404Z,1.91
2022-11-30T15:54:10.082Z,1.93
2022-11-30T15:56:36.879Z,1.83
2022-11-30T15:59:03.625Z,1.86
2022-11-30T16:01:32.087Z,1.83
2022-11-30T16:04:02.624Z,1.86
2022-11-30T16:06:32.670Z,1.90
2022-11-30T16:09:05.740Z,1.89
2022-11-30T16:11:33.734Z,1.89
2022-11-30T16:14:00.359Z,1.88
2022-11-30T16:16:30.635Z,1.86
2022-11-30T16:18:57.322Z,1.87
2022-11-30T16:21:24.142Z,1.85
2022-11-30T16:23:50.792Z,1.84
2022-11-30T16:29:05.671Z,1.81
2022-11-30T16:31:32.471Z,1.73
2022-11-30T16:33:59.278Z,1.71
2022-11-30T16:36:26.010Z,1.70
2022-11-30T16:38:53.725Z,1.66
2022-11-30T16:41:24.310Z,1.64
2022-11-30T16:43:54.480Z,1.56
2022-11-30T16:46:25.624Z,1.57
2022-11-30T16:48:52.937Z,1.56
2022-11-30T16:51:23.953Z,1.57
2022-11-30T16:53:50.932Z,1.54
2022-11-30T16:56:17.806Z,1.55
2022-11-30T16:58:46.280Z,1.54
2022-11-30T17:01:21.159Z,1.45
2022-11-30T17:03:50.953Z,1.48
2022-11-30T17:06:20.767Z,1.53
2022-11-30T17:08:48.780Z,1.55
2022-11-30T17:11:19.923Z,1.56
2022-11-30T17:13:46.876Z,1.52
2022-11-30T17:16:18.024Z,1.51
2022-11-30T17:18:44.714Z,1.49
2022-11-30T17:21:15.964Z,1.46
2022-11-30T17:23:43.587Z,1.49
2022-11-30T17:26:11.884Z,1.48
2022-11-30T17:28:39.561Z,1.55
2022-11-30T17:31:06.336Z,1.48
2022-11-30T17:33:34.445Z,1.46
2022-11-30T17:36:05.447Z,1.47
2022-11-30T17:38:33.213Z,1.41
2022-11-30T17:41:00.007Z,1.40
2022-11-30T17:43:26.643Z,1.44
2022-11-30T17:45:56.616Z,1.48
2022-11-30T17:48:26.448Z,1.45
2022-11-30T17:50:53.147Z,1.49
2022-11-30T17:53:19.793Z,1.48
2022-11-30T17:55:49.530Z,1.49
2022-11-30T17:58:16.482Z,1.52
2022-11-30T18:00:43.109Z,1.54
2022-11-30T18:03:09.832Z,1.55
2022-11-30T18:05:36.420Z,1.57
2022-11-30T18:08:03.329Z,1.59
2022-11-30T18:10:30.058Z,1.57
2022-11-30T18:12:57.823Z,1.49
2022-11-30T18:15:24.398Z,1.45
2022-11-30T18:17:51.215Z,1.42
2022-11-30T18:20:18.811Z,1.47
2022-11-30T18:22:46.552Z,1.51
2022-11-30T18:25:15.560Z,1.54
2022-11-30T18:27:42.219Z,1.55
2022-11-30T18:30:10.383Z,1.58
2022-11-30T18:32:37.273Z,1.55
2022-11-30T18:35:04.660Z,1.58
2022-11-30T18:37:33.342Z,1.56
2022-11-30T18:40:01.013Z,1.44
2022-11-30T18:42:27.791Z,1.39
2022-11-30T18:44:54.472Z,1.40
2022-11-30T18:47:21.353Z,1.36
2022-11-30T18:49:47.973Z,1.38
2022-11-30T18:52:14.830Z,1.37
2022-11-30T18:54:41.542Z,1.40
2022-11-30T18:57:08.160Z,1.29
2022-11-30T18:59:34.817Z,1.35
2022-11-30T19:02:02.598Z,1.37
2022-11-30T19:04:29.327Z,1.39
2022-11-30T19:06:55.941Z,1.35
2022-11-30T19:09:23.969Z,1.35
2022-11-30T19:11:50.685Z,1.30
2022-11-30T19:14:17.748Z,1.34
2022-11-30T19:16:45.061Z,1.37
2022-11-30T19:19:16.597Z,1.40
2022-11-30T19:21:47.822Z,1.44
2022-11-30T19:24:16.112Z,1.47
2022-11-30T19:26:42.867Z,1.47
2022-11-30T19:29:11.355Z,1.50
2022-11-30T19:31:38.023Z,1.49
2022-11-30T19:34:12.473Z,1.52
2022-11-30T19:36:40.503Z,1.53
2022-11-30T19:39:07.233Z,1.52
2022-11-30T19:41:33.843Z,1.53
2022-11-30T19:44:03.933Z,1.54
2022-11-30T19:46:32.923Z,1.53
2022-11-30T19:49:01.516Z,1.55
2022-11-30T19:51:29.657Z,1.54
2022-11-30T19:53:57.615Z,1.54
2022-11-30T19:56:25.390Z,1.56
2022-11-30T19:58:52.504Z,1.54
2022-11-30T20:01:23.095Z,1.62
2022-11-30T20:03:51.577Z,1.53
2022-11-30T20:06:19.234Z,1.52
2022-11-30T20:08:46.149Z,1.53
2022-11-30T20:11:15.887Z,1.54
2022-11-30T20:13:44.314Z,1.55
2022-11-30T20:16:17.752Z,1.53
2022-11-30T20:18:46.458Z,1.54
2022-11-30T20:21:18.351Z,1.54
2022-11-30T20:23:47.258Z,1.48
2022-11-30T20:26:18.379Z,1.49
2022-11-30T20:28:46.390Z,1.52
2022-11-30T20:31:14.889Z,1.54
2022-11-30T20:33:42.157Z,1.53
2022-11-30T20:36:10.535Z,1.49
2022-11-30T20:38:38.011Z,1.53
2022-11-30T20:41:05.443Z,1.54
2022-11-30T20:43:32.044Z,1.55
2022-11-30T20:45:58.759Z,1.54
2022-11-30T20:48:25.388Z,1.56
2022-11-30T20:51:22.041Z,1.61
2022-11-30T20:53:39.306Z,1.62
2022-11-30T20:56:06.647Z,1.60
2022-11-30T20:58:33.531Z,1.59
2022-11-30T21:01:00.585Z,1.61
2022-11-30T21:03:28.154Z,1.63
2022-11-30T21:05:54.765Z,1.64
2022-11-30T21:08:21.454Z,1.67
2022-11-30T21:10:48.079Z,1.71
2022-11-30T21:13:15.224Z,1.72
2022-11-30T21:15:42.328Z,1.73
2022-11-30T21:18:09.041Z,1.71
2022-11-30T21:20:35.636Z,1.69
2022-11-30T21:23:02.263Z,1.64
2022-11-30T21:25:29.117Z,1.52
2022-11-30T21:27:56.265Z,1.53
2022-11-30T21:30:22.895Z,1.48
2022-11-30T21:32:49.547Z,1.60
2022-11-30T21:35:16.272Z,1.44
2022-11-30T21:37:42.913Z,1.36
2022-11-30T21:40:10.905Z,1.32
2022-11-30T21:42:37.564Z,1.29
2022-11-30T21:45:04.438Z,1.33
2022-11-30T21:47:34.340Z,1.36
2022-11-30T21:50:04.187Z,1.55
2022-11-30T21:52:30.891Z,1.39
2022-11-30T21:54:57.539Z,1.39
2022-11-30T21:57:24.172Z,1.28
2022-11-30T21:59:50.972Z,1.23
2022-11-30T22:02:17.706Z,1.21
2022-11-30T22:04:44.353Z,1.25
2022-11-30T22:07:13.315Z,1.27
2022-11-30T22:09:40.166Z,1.27
2022-11-30T22:12:07.038Z,1.30
2022-11-30T22:14:36.204Z,1.31
2022-11-30T22:17:02.837Z,1.31
2022-11-30T22:19:29.502Z,1.31
2022-11-30T22:21:56.125Z,1.26
2022-11-30T22:24:22.898Z,1.24
2022-11-30T22:26:49.510Z,1.23
2022-11-30T22:29:19.462Z,1.19
2022-11-30T22:31:48.139Z,1.21
2022-11-30T22:34:15.431Z,1.12
2022-11-30T22:36:43.722Z,1.08
2022-11-30T22:39:13.125Z,1.03
2022-11-30T22:41:41.360Z,0.90
2022-11-30T22:44:09.907Z,0.90
2022-11-30T22:46:37.639Z,0.97
2022-11-30T22:49:07.310Z,0.89
2022-11-30T22:51:35.875Z,0.86
2022-11-30T22:54:02.896Z,0.85
2022-11-30T22:56:32.555Z,0.88
2022-11-30T22:59:01.039Z,0.76
2022-11-30T23:01:29.088Z,0.75
2022-11-30T23:03:57.479Z,0.72
2022-11-30T23:06:25.079Z,0.66
2022-11-30T23:08:52.577Z,0.51
2022-11-30T23:11:22.608Z,0.55
2022-11-30T23:13:49.586Z,0.59
2022-11-30T23:16:16.851Z,0.58
2022-11-30T23:18:48.789Z,0.38
2022-11-30T23:21:16.747Z,0.44
2022-11-30T23:23:44.179Z,0.47
2022-11-30T23:26:14.216Z,0.46
2022-11-30T23:28:42.869Z,0.38
2022-11-30T23:31:32.168Z,0.41
2022-11-30T23:34:01.064Z,0.40
2022-11-30T23:36:28.587Z,0.37
2022-11-30T23:38:59.588Z,0.37
2022-11-30T23:41:26.496Z,0.37
2022-11-30T23:43:53.836Z,0.30
2022-11-30T23:46:21.655Z,0.38
2022-11-30T23:48:48.602Z,0.21
2022-11-30T23:51:15.589Z,0.22
2022-11-30T23:53:42.496Z,0.13
2022-11-30T23:56:13.188Z,0.24
2022-11-30T23:58:39.811Z,0.09
